Powellsville, North Carolina
Current Conditions -  °F | °C
As of 3:15 PM on Sunday 21 Dec 2014 (Local Time) from KASJ Reporting Station
Clear Clear  
Wind Chill: 44°   Ceiling: Unl
Heat Index: 46°   Visibility: 10mi
Dew Point: 30°   Wind: 5mph
Humidity: 54%   Direction: 50°NE
Pressure: 30.25"   Gusts: NA
Location:  36.23°N, 76.93°W
Report Text: KASJ 212015Z AUTO 05004KT 10SM CLR 08/M01 A3025 RMK AO2 T00781010
Loading
Personal Weather Stations






























Interactive Weather Map New forecast layout! Learn more

10-Day Weather Forecast

Advertisements
Track Severe Weather on mobile